createdAt,value
2023-03-30T00:01:23.795Z,95000.59
2023-03-30T00:03:55.180Z,94998.78
2023-03-30T00:06:23.579Z,94998.69
2023-03-30T00:08:53.511Z,94997.72
2023-03-30T00:11:23.407Z,95000.34
2023-03-30T00:13:52.656Z,94993.19
2023-03-30T00:16:21.760Z,94987.44
2023-03-30T00:18:50.086Z,94989.75
2023-03-30T00:21:18.457Z,94984.69
2023-03-30T00:23:47.849Z,94972.47
2023-03-30T00:26:15.922Z,94972.47
2023-03-30T00:28:43.527Z,94966.25
2023-03-30T00:31:13.426Z,94962.84
2023-03-30T00:33:46.622Z,94966.25
2023-03-30T00:36:15.730Z,94958.41
2023-03-30T00:38:43.938Z,94957.63
2023-03-30T00:41:11.588Z,94947.03
2023-03-30T00:43:57.500Z,94947.19
2023-03-30T00:46:26.526Z,94949.63
2023-03-30T00:48:58.134Z,94946.19
2023-03-30T00:51:27.772Z,94934.81
2023-03-30T00:54:01.046Z,94940.00
2023-03-30T00:56:31.692Z,94939.19
2023-03-30T00:59:00.796Z,94936.41
2023-03-30T01:01:30.938Z,94941.47
2023-03-30T01:04:02.178Z,94938.88
2023-03-30T01:06:31.548Z,94937.09
2023-03-30T01:08:59.257Z,94939.03
2023-03-30T01:11:27.817Z,94934.63
2023-03-30T01:14:02.209Z,94937.09
2023-03-30T01:16:41.043Z,94936.13
2023-03-30T01:19:30.427Z,94926.63
2023-03-30T01:22:14.880Z,94929.25
2023-03-30T01:25:11.673Z,94925.81
2023-03-30T01:28:24.207Z,94928.44
2023-03-30T01:31:15.974Z,94915.38
2023-03-30T01:34:09.651Z,94920.59
2023-03-30T01:37:09.019Z,94925.03
2023-03-30T01:39:46.478Z,94917.19
2023-03-30T01:42:22.522Z,94911.16
2023-03-30T01:44:57.497Z,94917.97
2023-03-30T01:47:34.608Z,94912.75
2023-03-30T01:50:08.711Z,94911.16
2023-03-30T01:52:41.157Z,94905.94
2023-03-30T01:55:16.276Z,94913.75
2023-03-30T01:57:50.481Z,94922.41
2023-03-30T02:00:22.905Z,94920.75
2023-03-30T02:02:55.411Z,94926.81
2023-03-30T02:05:24.524Z,94930.25
2023-03-30T02:07:56.439Z,94927.63
2023-03-30T02:10:29.523Z,94932.03
2023-03-30T02:12:59.711Z,94931.03
2023-03-30T02:15:33.730Z,94933.66
2023-03-30T02:18:01.831Z,94936.41
2023-03-30T02:20:30.340Z,94933.81
2023-03-30T02:22:58.170Z,94936.25
2023-03-30T02:25:27.841Z,94940.69
2023-03-30T02:27:55.480Z,94935.47
2023-03-30T02:30:23.153Z,94933.81
2023-03-30T02:32:54.241Z,94943.28
2023-03-30T02:35:47.979Z,94940.69
2023-03-30T02:38:32.588Z,94943.28
2023-03-30T02:41:14.243Z,94960.56
2023-03-30T02:43:49.242Z,94961.56
2023-03-30T02:46:51.592Z,94978.84
2023-03-30T02:49:27.127Z,94976.22
2023-03-30T02:52:02.770Z,94984.06
2023-03-30T02:54:37.330Z,94992.72
2023-03-30T02:57:11.718Z,94986.69
2023-03-30T02:59:49.790Z,94993.69
2023-03-30T03:02:21.796Z,95000.56
2023-03-30T03:04:53.512Z,94995.50
2023-03-30T03:07:22.070Z,94996.28
2023-03-30T03:09:49.697Z,94997.28
2023-03-30T03:12:18.699Z,94991.06
2023-03-30T03:14:46.324Z,94991.91
2023-03-30T03:17:18.609Z,94987.66
2023-03-30T03:19:46.441Z,94985.06
2023-03-30T03:22:14.067Z,94983.25
2023-03-30T03:24:41.745Z,94982.44
2023-03-30T03:27:09.810Z,94977.22
2023-03-30T03:29:38.777Z,94964.97
2023-03-30T03:32:06.448Z,94958.94
2023-03-30T03:34:34.056Z,94949.47
2023-03-30T03:37:01.699Z,94948.50
2023-03-30T03:39:29.338Z,94943.41
2023-03-30T03:41:56.979Z,94961.56
2023-03-30T03:44:24.618Z,94962.53
2023-03-30T03:46:53.683Z,94972.97
2023-03-30T03:49:21.616Z,94985.84
2023-03-30T03:51:49.209Z,94992.06
2023-03-30T03:54:17.121Z,95003.31
2023-03-30T03:56:44.752Z,95017.16
2023-03-30T03:59:12.398Z,95031.22
2023-03-30T04:01:40.050Z,95037.25
2023-03-30T04:04:09.033Z,95027.78
2023-03-30T04:06:36.890Z,95039.72
2023-03-30T04:09:04.773Z,95020.59
2023-03-30T04:11:32.524Z,95018.81
2023-03-30T04:14:00.289Z,95025.69
2023-03-30T04:16:28.642Z,95025.69
2023-03-30T04:18:57.607Z,95026.50
2023-03-30T04:21:29.767Z,95040.22
2023-03-30T04:23:57.512Z,95034.03
2023-03-30T04:26:25.317Z,95040.88
2023-03-30T04:28:53.945Z,95049.53
2023-03-30T04:31:22.915Z,95056.41
2023-03-30T04:33:52.955Z,95065.06
2023-03-30T04:36:21.518Z,95068.47
2023-03-30T04:38:58.554Z,95080.56
2023-03-30T04:41:33.363Z,95065.88
2023-03-30T04:44:02.608Z,95084.97
2023-03-30T04:46:30.420Z,95081.53
2023-03-30T04:48:58.080Z,95078.13
2023-03-30T04:51:25.954Z,95075.34
2023-03-30T04:53:55.041Z,95064.91
2023-03-30T04:56:22.719Z,95060.66
2023-03-30T04:58:50.324Z,95046.94
2023-03-30T05:01:18.378Z,95044.97
2023-03-30T05:03:46.103Z,95039.75
2023-03-30T05:06:14.012Z,95038.13
2023-03-30T05:08:42.035Z,95030.44
2023-03-30T05:11:11.761Z,95030.44
2023-03-30T05:13:40.464Z,95029.47
2023-03-30T05:16:09.239Z,95034.69
2023-03-30T05:18:38.842Z,95025.22
2023-03-30T05:21:06.940Z,95016.44
2023-03-30T05:23:34.689Z,95018.22
2023-03-30T05:26:04.498Z,95011.38
2023-03-30T05:28:33.804Z,95017.25
2023-03-30T05:31:02.081Z,95003.38
2023-03-30T05:33:29.917Z,94998.16
2023-03-30T05:35:57.576Z,95008.59
2023-03-30T05:38:25.230Z,94994.88
2023-03-30T05:40:53.766Z,94993.09
2023-03-30T05:43:21.726Z,94986.06
2023-03-30T05:45:51.143Z,94982.66
2023-03-30T05:48:18.792Z,94980.03
2023-03-30T05:50:48.336Z,94972.03
2023-03-30T05:53:16.246Z,94966.81
2023-03-30T05:55:45.127Z,94965.03
2023-03-30T05:58:12.744Z,94965.03
2023-03-30T06:00:41.653Z,94944.16
2023-03-30T06:03:11.407Z,94946.78
2023-03-30T06:05:41.337Z,94935.50
2023-03-30T06:08:09.359Z,94934.53
2023-03-30T06:10:37.582Z,94927.66
2023-03-30T06:13:05.625Z,94907.75
2023-03-30T06:15:33.689Z,94911.84
2023-03-30T06:18:04.049Z,94914.63
2023-03-30T06:20:33.792Z,94919.00
2023-03-30T06:23:01.708Z,94905.13
2023-03-30T06:25:29.701Z,94897.31
2023-03-30T06:27:57.827Z,94902.53
2023-03-30T06:30:25.618Z,94905.00
2023-03-30T06:32:53.399Z,94889.47
2023-03-30T06:35:21.451Z,94883.47
2023-03-30T06:37:50.440Z,94891.13
2023-03-30T06:40:19.059Z,94870.41
2023-03-30T06:42:47.055Z,94869.56
2023-03-30T06:45:16.326Z,94873.81
2023-03-30T06:47:43.989Z,94865.19
2023-03-30T06:50:11.951Z,94865.19
2023-03-30T06:52:39.866Z,94853.91
2023-03-30T06:55:09.673Z,94843.47
2023-03-30T06:57:37.402Z,94824.53
2023-03-30T07:00:13.179Z,94827.00
2023-03-30T07:02:41.154Z,94820.81
2023-03-30T07:05:09.226Z,94823.41
2023-03-30T07:07:37.611Z,94814.75
2023-03-30T07:10:10.318Z,94819.97
2023-03-30T07:12:40.804Z,94812.16
2023-03-30T07:15:09.990Z,94801.72
2023-03-30T07:17:37.780Z,94795.66
2023-03-30T07:20:08.279Z,94805.16
2023-03-30T07:22:36.562Z,94801.72
2023-03-30T07:25:04.867Z,94803.31
2023-03-30T07:27:32.504Z,94801.53
2023-03-30T07:30:10.199Z,94797.31
2023-03-30T07:32:42.064Z,94800.72
2023-03-30T07:35:10.636Z,94805.94
2023-03-30T07:37:40.001Z,94791.09
2023-03-30T07:40:10.051Z,94800.72
2023-03-30T07:42:37.998Z,94808.56
2023-03-30T07:45:08.465Z,94812.81
2023-03-30T07:47:36.332Z,94818.03
2023-03-30T07:50:04.721Z,94797.97
2023-03-30T07:52:32.381Z,94804.03
2023-03-30T07:55:00.141Z,94817.06
2023-03-30T07:57:27.986Z,94792.75
2023-03-30T07:59:55.666Z,94784.09
2023-03-30T08:02:24.634Z,94803.31
2023-03-30T08:04:53.401Z,94792.75
2023-03-30T08:07:21.046Z,94751.13
2023-03-30T08:09:48.763Z,94772.00
2023-03-30T08:12:16.373Z,94770.38
2023-03-30T08:14:43.996Z,94771.22
2023-03-30T08:17:12.218Z,94752.94
2023-03-30T08:19:41.223Z,94752.94
2023-03-30T08:22:08.972Z,94750.16
2023-03-30T08:24:36.557Z,94761.56
2023-03-30T08:27:04.431Z,94755.56
2023-03-30T08:29:32.146Z,94739.88
2023-03-30T08:31:59.809Z,94740.69
2023-03-30T08:34:27.496Z,94747.72
2023-03-30T08:36:58.086Z,94752.13
2023-03-30T08:39:26.350Z,94758.16
2023-03-30T08:42:11.876Z,94752.78
2023-03-30T08:44:41.607Z,94749.50
2023-03-30T08:47:13.725Z,94750.31
2023-03-30T08:49:45.638Z,94760.78
2023-03-30T08:52:23.624Z,94745.09
2023-03-30T08:54:52.056Z,94751.28
2023-03-30T08:57:33.191Z,94743.16
2023-03-30T09:00:14.603Z,94736.44
2023-03-30T09:02:47.171Z,94729.44
2023-03-30T09:05:22.641Z,94724.22
2023-03-30T09:08:01.214Z,94732.72
2023-03-30T09:10:32.616Z,94739.72
2023-03-30T09:13:04.561Z,94743.16
2023-03-30T09:15:36.041Z,94747.56
2023-03-30T09:18:08.794Z,94735.16
2023-03-30T09:20:39.109Z,94727.50
2023-03-30T09:23:14.088Z,94748.38
2023-03-30T09:25:47.081Z,94753.59
2023-03-30T09:28:20.745Z,94762.25
2023-03-30T09:30:52.989Z,94756.22
2023-03-30T09:33:28.995Z,94759.63
2023-03-30T09:36:08.559Z,94750.97
2023-03-30T09:38:41.746Z,94761.44
2023-03-30T09:41:34.503Z,94757.03
2023-03-30T09:44:03.504Z,94758.00
2023-03-30T09:46:31.436Z,94762.25
2023-03-30T09:49:15.063Z,94766.66
2023-03-30T09:51:56.003Z,94772.69
2023-03-30T09:54:25.122Z,94771.03
2023-03-30T09:56:56.989Z,94776.25
2023-03-30T09:59:30.986Z,94769.41
2023-03-30T10:02:18.860Z,94758.81
2023-03-30T10:05:04.413Z,94773.66
2023-03-30T10:07:35.033Z,94763.38
2023-03-30T10:10:16.338Z,94753.72
2023-03-30T10:12:44.097Z,94748.50
2023-03-30T10:15:18.252Z,94748.50
2023-03-30T10:17:47.985Z,94750.16
2023-03-30T10:20:23.770Z,94752.78
2023-03-30T10:22:54.205Z,94751.94
2023-03-30T10:25:25.183Z,94750.16
2023-03-30T10:27:55.792Z,94762.25
2023-03-30T10:30:27.035Z,94768.25
2023-03-30T10:32:57.359Z,94766.47
2023-03-30T10:35:27.400Z,94769.09
2023-03-30T10:37:58.687Z,94769.09
2023-03-30T10:40:35.016Z,94782.16
2023-03-30T10:43:03.808Z,94783.78
2023-03-30T10:45:38.454Z,94789.81
2023-03-30T10:48:27.441Z,94796.84
2023-03-30T10:51:02.431Z,94813.31
2023-03-30T10:53:38.473Z,94819.34
2023-03-30T10:56:17.197Z,94822.78
2023-03-30T10:59:01.280Z,94835.84
2023-03-30T11:01:38.187Z,94828.97
2023-03-30T11:04:22.603Z,94841.06
2023-03-30T11:06:54.173Z,94859.34
2023-03-30T11:09:27.830Z,94864.38
2023-03-30T11:12:02.217Z,94860.16
2023-03-30T11:14:42.450Z,94863.59
2023-03-30T11:17:17.277Z,94861.94
2023-03-30T11:19:50.134Z,94872.38
2023-03-30T11:22:33.639Z,94866.19
2023-03-30T11:25:04.746Z,94879.25
2023-03-30T11:27:40.824Z,94880.88
2023-03-30T11:30:15.436Z,94905.38
2023-03-30T11:32:47.818Z,94907.16
2023-03-30T11:35:19.882Z,94912.38
2023-03-30T11:37:53.663Z,94904.53
2023-03-30T11:40:25.578Z,94914.16
2023-03-30T11:42:56.268Z,94908.94
2023-03-30T11:45:42.246Z,94912.38
2023-03-30T11:48:40.756Z,94919.38
2023-03-30T11:51:23.380Z,94925.41
2023-03-30T11:53:56.497Z,94941.09
2023-03-30T11:56:34.741Z,94948.09
2023-03-30T11:59:06.902Z,94961.97
2023-03-30T12:01:46.399Z,94971.59
2023-03-30T12:04:16.792Z,94970.75
2023-03-30T12:06:52.893Z,94980.25
2023-03-30T12:09:28.878Z,94988.06
2023-03-30T12:12:04.551Z,94983.00
2023-03-30T12:14:44.419Z,94984.66
2023-03-30T12:17:27.558Z,94982.03
2023-03-30T12:20:00.443Z,94974.19
2023-03-30T12:22:36.171Z,94958.53
2023-03-30T12:25:16.685Z,94957.72
2023-03-30T12:27:59.656Z,94957.72
2023-03-30T12:30:30.884Z,94961.97
2023-03-30T12:33:01.745Z,94949.75
2023-03-30T12:36:03.513Z,94930.66
2023-03-30T12:38:43.473Z,94924.59
2023-03-30T12:41:18.052Z,94908.94
2023-03-30T12:44:09.086Z,94921.03
2023-03-30T12:46:44.487Z,94922.66
2023-03-30T12:49:23.223Z,94915.81
2023-03-30T12:52:05.072Z,94925.41
2023-03-30T12:54:44.830Z,94927.88
2023-03-30T12:57:26.036Z,94926.25
2023-03-30T13:00:20.182Z,94919.22
2023-03-30T13:03:10.383Z,94919.22
2023-03-30T13:05:42.232Z,94917.44
2023-03-30T13:08:21.248Z,94914.97
2023-03-30T13:10:49.153Z,94912.38
2023-03-30T13:13:24.771Z,94912.38
2023-03-30T13:15:57.163Z,94903.72
2023-03-30T13:18:35.565Z,94898.50
2023-03-30T13:21:19.088Z,94900.28
2023-03-30T13:24:05.272Z,94886.25
2023-03-30T13:26:42.644Z,94885.44
2023-03-30T13:29:14.216Z,94889.84
2023-03-30T13:31:55.261Z,94884.63
2023-03-30T13:34:48.956Z,94871.56
2023-03-30T13:37:35.896Z,94876.66
2023-03-30T13:40:12.003Z,94874.16
2023-03-30T13:42:50.479Z,94875.00
2023-03-30T13:45:31.855Z,94872.38
2023-03-30T13:48:10.229Z,94867.16
2023-03-30T13:50:40.287Z,94876.78
2023-03-30T13:53:11.407Z,94875.00
2023-03-30T13:55:40.758Z,94871.44
2023-03-30T13:58:13.994Z,94868.81
2023-03-30T14:00:48.886Z,94878.44
2023-03-30T14:03:32.077Z,94882.81
2023-03-30T14:06:03.879Z,94894.91
2023-03-30T14:08:35.614Z,94891.47
2023-03-30T14:11:08.584Z,94881.88
2023-03-30T14:13:38.575Z,94886.09
2023-03-30T14:16:08.252Z,94885.28
2023-03-30T14:18:36.638Z,94890.50
2023-03-30T14:21:13.632Z,94877.44
2023-03-30T14:23:46.149Z,94883.50
2023-03-30T14:26:15.814Z,94882.66
2023-03-30T14:28:43.751Z,94890.34
2023-03-30T14:31:17.480Z,94889.53
2023-03-30T14:33:45.683Z,94871.25
2023-03-30T14:36:16.672Z,94844.16
2023-03-30T14:38:47.890Z,94833.72
2023-03-30T14:41:19.140Z,94828.66
2023-03-30T14:43:53.458Z,94824.25
2023-03-30T14:46:21.881Z,94840.75
2023-03-30T14:48:50.783Z,94827.84
2023-03-30T14:51:26.111Z,94839.75
2023-03-30T14:53:55.844Z,94831.94
2023-03-30T14:56:24.336Z,94817.25
2023-03-30T14:58:53.213Z,94829.50
2023-03-30T15:01:30.808Z,94825.22
2023-03-30T15:04:00.250Z,94818.22
2023-03-30T15:06:31.295Z,94819.22
2023-03-30T15:09:02.325Z,94821.66
2023-03-30T15:11:33.201Z,94838.28
2023-03-30T15:14:04.282Z,94846.94
2023-03-30T15:16:34.035Z,94840.09
2023-03-30T15:19:04.489Z,94841.88
2023-03-30T15:21:36.013Z,94849.53
2023-03-30T15:24:06.576Z,94852.97
2023-03-30T15:26:34.507Z,94852.97
2023-03-30T15:29:02.246Z,94848.72
2023-03-30T15:31:29.954Z,94834.53
2023-03-30T15:33:59.772Z,94836.31
2023-03-30T15:36:37.253Z,94831.28
2023-03-30T15:39:20.611Z,94826.06
2023-03-30T15:41:49.697Z,94820.00
2023-03-30T15:44:19.802Z,94822.47
2023-03-30T15:46:49.462Z,94818.06
2023-03-30T15:49:20.424Z,94816.44
2023-03-30T15:51:51.715Z,94804.19
2023-03-30T15:54:25.747Z,94799.78
2023-03-30T15:56:58.197Z,94797.16
2023-03-30T15:59:31.093Z,94807.59
2023-03-30T16:02:04.137Z,94811.03
2023-03-30T16:04:33.217Z,94818.88
2023-03-30T16:07:00.795Z,94817.25
2023-03-30T16:09:29.717Z,94817.25
2023-03-30T16:11:59.416Z,94816.44
2023-03-30T16:14:27.177Z,94814.66
2023-03-30T16:16:54.754Z,94815.59
2023-03-30T16:19:24.785Z,94820.66
2023-03-30T16:21:52.994Z,94823.44
2023-03-30T16:24:20.966Z,94826.06
2023-03-30T16:26:49.943Z,94833.88
2023-03-30T16:29:21.445Z,94833.88
2023-03-30T16:31:49.584Z,94826.06
2023-03-30T16:34:17.415Z,94826.06
2023-03-30T16:36:45.531Z,94828.66
2023-03-30T16:39:18.278Z,94836.50
2023-03-30T16:41:46.508Z,94828.66
2023-03-30T16:44:15.474Z,94831.28
2023-03-30T16:46:43.432Z,94837.31
2023-03-30T16:49:14.266Z,94834.88
2023-03-30T16:51:42.294Z,94828.66
2023-03-30T16:54:23.034Z,94820.84
2023-03-30T16:56:57.824Z,94820.84
2023-03-30T16:59:30.289Z,94818.06
2023-03-30T17:01:58.831Z,94805.81
2023-03-30T17:04:26.847Z,94817.09
2023-03-30T17:06:55.013Z,94823.94
2023-03-30T17:09:23.388Z,94813.66
2023-03-30T17:11:51.481Z,94826.53
2023-03-30T17:14:20.104Z,94829.97
2023-03-30T17:16:49.355Z,94830.81
2023-03-30T17:19:17.007Z,94831.63
2023-03-30T17:21:45.891Z,94841.25
2023-03-30T17:24:15.174Z,94835.06
2023-03-30T17:26:43.124Z,94836.69
2023-03-30T17:29:11.431Z,94841.91
2023-03-30T17:31:39.254Z,94841.06
2023-03-30T17:34:08.330Z,94842.91
2023-03-30T17:36:35.948Z,94842.91
2023-03-30T17:39:05.337Z,94837.69
2023-03-30T17:41:34.260Z,94839.47
2023-03-30T17:44:01.883Z,94836.84
2023-03-30T17:46:29.543Z,94839.47
2023-03-30T17:48:58.725Z,94838.63
2023-03-30T17:51:26.557Z,94846.31
2023-03-30T17:53:55.535Z,94838.63
2023-03-30T17:56:23.148Z,94841.06
2023-03-30T17:58:53.149Z,94840.28
2023-03-30T18:01:20.894Z,94848.13
2023-03-30T18:03:48.652Z,94848.13
2023-03-30T18:06:16.246Z,94857.75
2023-03-30T18:08:43.968Z,94865.41
2023-03-30T18:11:12.951Z,94864.56
2023-03-30T18:13:40.607Z,94848.91
2023-03-30T18:16:08.412Z,94835.72
2023-03-30T18:18:36.128Z,94832.28
2023-03-30T18:21:06.731Z,94838.47
2023-03-30T18:23:35.341Z,94838.47
2023-03-30T18:26:06.403Z,94853.34
2023-03-30T18:28:40.283Z,94854.97
2023-03-30T18:31:08.648Z,94856.75
2023-03-30T18:33:36.529Z,94856.75
2023-03-30T18:36:08.049Z,94870.63
2023-03-30T18:38:35.978Z,94863.63
2023-03-30T18:41:03.572Z,94868.84
2023-03-30T18:43:31.217Z,94888.75
2023-03-30T18:46:02.140Z,94880.91
2023-03-30T18:48:30.573Z,94883.50
2023-03-30T18:50:58.756Z,94884.34
2023-03-30T18:53:28.136Z,94879.13
2023-03-30T18:55:58.426Z,94876.50
2023-03-30T18:58:28.355Z,94879.13
2023-03-30T19:00:56.713Z,94883.50
2023-03-30T19:03:27.212Z,94886.78
2023-03-30T19:05:55.418Z,94885.16
2023-03-30T19:08:25.028Z,94884.34
2023-03-30T19:10:55.406Z,94877.34
2023-03-30T19:13:24.887Z,94888.59
2023-03-30T19:15:53.314Z,94898.22
2023-03-30T19:18:21.364Z,94901.66
2023-03-30T19:20:51.779Z,94908.66
2023-03-30T19:23:21.608Z,94906.06
2023-03-30T19:25:49.807Z,94914.72
2023-03-30T19:28:17.887Z,94903.44
2023-03-30T19:30:46.683Z,94906.06
2023-03-30T19:33:16.186Z,94911.28
2023-03-30T19:35:45.698Z,94915.66
2023-03-30T19:38:14.825Z,94917.47
2023-03-30T19:40:42.678Z,94925.28
2023-03-30T19:43:10.783Z,94929.56
2023-03-30T19:45:40.097Z,94939.19
2023-03-30T19:48:07.891Z,94937.38
2023-03-30T19:50:35.609Z,94947.84
2023-03-30T19:53:03.236Z,94973.94
2023-03-30T19:55:32.194Z,94987.00
2023-03-30T19:57:59.769Z,94993.06
2023-03-30T20:00:27.406Z,94997.28
2023-03-30T20:02:56.486Z,94996.44
2023-03-30T20:05:25.632Z,95003.50
2023-03-30T20:07:53.780Z,95016.56
2023-03-30T20:10:23.648Z,95014.72
2023-03-30T20:12:53.644Z,95007.88
2023-03-30T20:15:23.201Z,94998.28
2023-03-30T20:17:58.535Z,94978.19
2023-03-30T20:20:26.538Z,94970.34
2023-03-30T20:22:56.386Z,94948.66
2023-03-30T20:25:24.774Z,94940.00
2023-03-30T20:27:54.297Z,94940.81
2023-03-30T20:30:21.981Z,94946.84
2023-03-30T20:33:03.815Z,94941.63
2023-03-30T20:35:37.796Z,94947.00
2023-03-30T20:38:06.891Z,94935.59
2023-03-30T20:40:35.358Z,94928.72
2023-03-30T20:43:10.092Z,94927.78
2023-03-30T20:45:46.387Z,94929.56
2023-03-30T20:48:26.480Z,94924.34
2023-03-30T20:50:55.106Z,94918.28
2023-03-30T20:53:22.927Z,94910.44
2023-03-30T20:55:51.331Z,94907.00
2023-03-30T20:58:22.158Z,94907.84
2023-03-30T21:00:51.979Z,94908.66
2023-03-30T21:03:20.293Z,94896.56
2023-03-30T21:05:59.086Z,94905.22
2023-03-30T21:08:27.240Z,94908.66
2023-03-30T21:10:55.463Z,94908.84
2023-03-30T21:13:24.423Z,94903.44
2023-03-30T21:15:56.618Z,94907.00
2023-03-30T21:18:24.229Z,94907.00
2023-03-30T21:20:51.946Z,94893.16
2023-03-30T21:23:19.845Z,94888.75
2023-03-30T21:25:47.495Z,94890.56
2023-03-30T21:28:15.130Z,94893.97
2023-03-30T21:30:44.453Z,94884.50
2023-03-30T21:33:12.104Z,94884.50
2023-03-30T21:35:39.763Z,94886.28
2023-03-30T21:38:07.410Z,94872.41
2023-03-30T21:40:35.022Z,94864.56
2023-03-30T21:43:02.749Z,94866.41
2023-03-30T21:45:30.378Z,94874.22
2023-03-30T21:47:59.364Z,94866.41
2023-03-30T21:50:26.964Z,94869.97
2023-03-30T21:52:58.227Z,94860.34
2023-03-30T21:55:25.915Z,94865.56
2023-03-30T21:57:53.580Z,94860.34
2023-03-30T22:00:21.455Z,94862.13
2023-03-30T22:02:49.143Z,94856.91
2023-03-30T22:05:18.638Z,94857.75
2023-03-30T22:07:46.489Z,94858.56
2023-03-30T22:10:14.122Z,94855.13
2023-03-30T22:12:41.753Z,94843.03
2023-03-30T22:15:10.113Z,94846.47
2023-03-30T22:17:42.749Z,94847.28
2023-03-30T22:20:12.013Z,94841.25
2023-03-30T22:22:41.156Z,94846.47
2023-03-30T22:25:09.737Z,94842.06
2023-03-30T22:27:37.442Z,94840.41
2023-03-30T22:30:05.916Z,94832.59
2023-03-30T22:32:34.166Z,94837.81
2023-03-30T22:35:02.028Z,94838.63
2023-03-30T22:37:30.820Z,94835.19
2023-03-30T22:39:59.806Z,94831.75
2023-03-30T22:42:27.419Z,94830.97
2023-03-30T22:44:55.037Z,94825.75
2023-03-30T22:47:22.677Z,94821.50
2023-03-30T22:49:50.300Z,94825.75
2023-03-30T22:52:17.892Z,94816.25
2023-03-30T22:54:45.561Z,94811.88
2023-03-30T22:57:15.223Z,94810.38
2023-03-30T22:59:44.236Z,94806.00
2023-03-30T23:02:12.268Z,94799.78
2023-03-30T23:04:40.357Z,94791.94
2023-03-30T23:07:08.789Z,94792.78
2023-03-30T23:09:38.300Z,94784.94
2023-03-30T23:12:06.571Z,94785.94
2023-03-30T23:14:37.871Z,94774.66
2023-03-30T23:17:05.556Z,94766.00
2023-03-30T23:19:36.480Z,94766.00
2023-03-30T23:22:04.103Z,94762.56
2023-03-30T23:24:32.158Z,94765.19
2023-03-30T23:26:59.901Z,94772.06
2023-03-30T23:29:27.573Z,94763.41
2023-03-30T23:31:56.535Z,94766.84
2023-03-30T23:34:24.150Z,94764.38
2023-03-30T23:36:53.085Z,94763.41
2023-03-30T23:39:20.883Z,94760.78
2023-03-30T23:41:48.434Z,94761.59
2023-03-30T23:44:16.125Z,94759.00
2023-03-30T23:46:43.760Z,94750.34
2023-03-30T23:49:12.708Z,94745.94
2023-03-30T23:51:40.510Z,94746.91
2023-03-30T23:54:08.098Z,94738.13
2023-03-30T23:56:37.188Z,94740.72
2023-03-30T23:59:05.678Z,94726.84
